Edgewater, Wisconsin
Current Conditions -  °F | °C
As of 9:53 AM on Thursday 30 Oct 2014 (Local Time) from KHYR Reporting Station
Overcast Overcast  
Wind Chill: 38°   Ceiling: 2300
Heat Index: 38°   Visibility: 10mi
Dew Point: 32°   Wind: 0mph
Humidity: 79%   Direction: NA
Pressure: 30.08"   Gusts: NA
Location:  45.74°N, 91.48°W
Report Text: KHYR 301453Z AUTO 00000KT 10SM OVC023 03/00 A3008 RMK AO2 SLP197 T00330000 53007
Loading
Personal Weather Stations






























Interactive Weather Map
Tropical Storm Tracking
New forecast layout! Learn more

10-Day Weather Forecast

Advertisements
Track Severe Weather on mobile